Time;durP1;ratioP1;P1;durP2;ratioP2;P2;SDS_P1;SDS_P2;PMS_P1;PMS_P2;Temp;Humidity;BMP_temperature;BMP_pressure;BME280_temperature;BME280_humidity;BME280_pressure;Samples;Min_cycle;Max_cycle;Signal;HPM_P1;HPM_P2
2022/01/17 00:02:22;;;;;;;51.13;24.70;;;2.40;99.90;;;;;;5074533;28;20040;-70
2022/01/17 00:04:49;;;;;;;52.50;24.50;;;2.50;99.90;;;;;;5074837;28;20052;-71
2022/01/17 00:07:17;;;;;;;51.57;22.73;;;2.50;99.90;;;;;;5075206;28;20072;-71
2022/01/17 00:09:44;;;;;;;57.23;24.47;;;2.50;99.90;;;;;;5075189;28;20496;-71
2022/01/17 00:12:11;;;;;;;52.47;24.47;;;2.50;99.90;;;;;;5075043;28;20483;-71
2022/01/17 00:14:41;;;;;;;56.27;24.47;;;2.50;99.90;;;;;;5074407;28;20048;-70
2022/01/17 00:17:23;;;;;;;56.07;24.30;;;2.50;99.90;;;;;;5074837;28;20246;-71
2022/01/17 00:19:54;;;;;;;47.63;22.10;;;2.50;99.90;;;;;;5075234;28;20044;-72
2022/01/17 00:22:21;;;;;;;54.77;23.73;;;2.50;99.90;;;;;;5074662;28;20048;-72
2022/01/17 00:24:49;;;;;;;53.73;24.33;;;2.60;99.90;;;;;;5072889;28;20143;-72
2022/01/17 00:27:16;;;;;;;60.43;25.40;;;2.50;99.90;;;;;;5072763;28;20060;-73
2022/01/17 00:29:44;;;;;;;51.33;23.03;;;2.50;99.90;;;;;;5072083;28;20147;-71
2022/01/17 00:32:12;;;;;;;54.60;24.47;;;2.50;99.90;;;;;;5072407;28;20139;-71
2022/01/17 00:34:39;;;;;;;52.57;23.37;;;2.50;99.90;;;;;;5072319;28;20048;-71
2022/01/17 00:37:06;;;;;;;57.00;24.30;;;2.50;99.90;;;;;;5072364;28;20090;-70
2022/01/17 00:39:33;;;;;;;54.37;23.93;;;2.50;99.90;;;;;;5071804;28;20132;-71
2022/01/17 00:42:00;;;;;;;54.33;23.43;;;2.50;99.90;;;;;;5072863;28;20055;-71
2022/01/17 00:44:27;;;;;;;55.63;24.30;;;2.50;99.90;;;;;;5072670;28;20047;-72
2022/01/17 00:46:55;;;;;;;53.40;25.67;;;2.50;99.90;;;;;;5071663;28;20132;-71
2022/01/17 00:49:22;;;;;;;55.00;23.93;;;2.50;99.90;;;;;;5071868;28;20131;-71
2022/01/17 00:51:49;;;;;;;54.33;23.97;;;2.50;99.90;;;;;;5072737;28;20572;-70
2022/01/17 00:54:16;;;;;;;51.17;24.13;;;2.50;99.90;;;;;;5072209;28;20052;-71
2022/01/17 00:56:43;;;;;;;53.63;24.17;;;2.50;99.90;;;;;;5072501;28;20049;-70
2022/01/17 00:59:10;;;;;;;52.57;22.97;;;2.50;99.90;;;;;;5074136;28;20048;-71
2022/01/17 01:01:37;;;;;;;54.87;23.40;;;2.60;99.90;;;;;;5074296;28;20500;-72
2022/01/17 01:04:05;;;;;;;53.50;23.80;;;2.60;99.90;;;;;;5074270;28;20131;-71
2022/01/17 01:06:32;;;;;;;53.00;23.63;;;2.60;99.90;;;;;;5073718;28;20131;-71
2022/01/17 01:09:00;;;;;;;53.60;23.87;;;2.60;99.90;;;;;;5073777;28;20053;-71
2022/01/17 01:11:27;;;;;;;52.13;23.00;;;2.60;99.90;;;;;;5073804;28;20540;-71
2022/01/17 01:13:54;;;;;;;54.93;23.60;;;2.60;99.90;;;;;;5073165;28;20174;-70
2022/01/17 01:16:31;;;;;;;51.13;23.83;;;2.60;99.90;;;;;;5072738;28;20127;-71
2022/01/17 01:27:54;;;;;;;52.27;23.17;;;2.70;99.90;;;;;;5073389;28;20465;-71
2022/01/17 01:30:23;;;;;;;51.80;23.07;;;2.70;99.90;;;;;;5073215;28;20091;-70
2022/01/17 01:32:54;;;;;;;47.83;21.90;;;2.70;99.90;;;;;;5072231;28;20505;-71
2022/01/17 01:35:23;;;;;;;49.43;23.13;;;2.70;99.90;;;;;;5072044;28;20106;-71
2022/01/17 01:37:51;;;;;;;50.73;24.00;;;2.70;99.90;;;;;;5073389;28;20052;-70
2022/01/17 01:40:21;;;;;;;53.17;23.70;;;2.70;99.90;;;;;;5073620;28;20288;-70
2022/01/17 01:42:51;;;;;;;47.97;21.53;;;2.80;99.90;;;;;;5073897;28;20049;-71
2022/01/17 01:45:19;;;;;;;49.53;22.90;;;2.80;99.90;;;;;;5073036;28;20052;-71
2022/01/17 01:47:47;;;;;;;50.60;21.93;;;2.80;99.90;;;;;;5073969;28;20088;-70
2022/01/17 01:50:14;;;;;;;51.20;22.63;;;2.80;99.90;;;;;;5073486;28;20087;-71
2022/01/17 01:52:42;;;;;;;48.83;22.40;;;2.80;99.90;;;;;;5072899;28;20052;-71
2022/01/17 01:55:13;;;;;;;49.33;24.00;;;2.80;99.90;;;;;;5072394;28;20520;-71
2022/01/17 01:57:42;;;;;;;44.57;18.87;;;2.90;99.90;;;;;;5073023;28;20053;-70
2022/01/17 02:00:11;;;;;;;49.07;22.17;;;2.80;99.90;;;;;;5072368;28;20048;-71
2022/01/17 02:02:38;;;;;;;44.90;20.60;;;2.80;99.90;;;;;;5073501;28;20434;-71
2022/01/17 02:05:06;;;;;;;52.80;21.30;;;2.80;99.90;;;;;;5072227;28;20132;-71
2022/01/17 02:07:33;;;;;;;47.03;22.83;;;2.80;99.90;;;;;;5072474;28;20127;-71
2022/01/17 02:10:00;;;;;;;49.03;21.37;;;2.90;99.90;;;;;;5076369;28;20087;-71
2022/01/17 02:12:29;;;;;;;45.03;21.77;;;2.90;99.90;;;;;;5077193;28;20127;-71
2022/01/17 02:14:57;;;;;;;50.13;22.30;;;2.90;99.90;;;;;;5076409;28;20528;-71
2022/01/17 02:17:25;;;;;;;44.93;20.87;;;2.90;99.90;;;;;;5076501;28;20132;-70
2022/01/17 02:20:03;;;;;;;42.27;18.30;;;2.90;99.90;;;;;;5076330;28;20083;-71
2022/01/17 02:22:30;;;;;;;48.67;21.43;;;2.90;99.90;;;;;;5076569;28;20115;-71
2022/01/17 02:24:57;;;;;;;48.23;20.03;;;2.90;99.90;;;;;;5075758;28;20083;-70
2022/01/17 02:27:24;;;;;;;45.80;21.03;;;2.90;99.90;;;;;;5076974;28;20127;-70
2022/01/17 02:29:50;;;;;;;39.43;18.77;;;2.90;99.90;;;;;;5076780;28;20079;-70
2022/01/17 02:32:18;;;;;;;46.53;20.07;;;2.90;99.90;;;;;;5075506;28;20466;-71
2022/01/17 02:34:45;;;;;;;42.53;20.03;;;2.90;99.90;;;;;;5075830;28;20520;-71
2022/01/17 02:37:15;;;;;;;45.73;21.07;;;2.90;99.90;;;;;;5075570;28;20127;-71
2022/01/17 02:39:41;;;;;;;44.03;21.37;;;2.90;99.90;;;;;;5076187;28;20496;-71
2022/01/17 02:42:11;;;;;;;42.73;19.93;;;2.90;99.90;;;;;;5076453;28;20045;-71
2022/01/17 02:44:44;;;;;;;43.83;20.97;;;2.90;99.90;;;;;;5076583;28;20143;-71
2022/01/17 02:47:12;;;;;;;42.93;19.00;;;2.90;99.90;;;;;;5076914;28;20061;-70
2022/01/17 02:49:38;;;;;;;51.40;21.97;;;2.90;99.90;;;;;;5076261;28;20535;-71
2022/01/17 02:52:06;;;;;;;45.57;20.07;;;2.90;99.90;;;;;;5075249;28;20142;-71
2022/01/17 02:54:36;;;;;;;48.37;22.00;;;2.90;99.90;;;;;;5075918;28;20131;-71
2022/01/17 02:57:03;;;;;;;46.47;22.03;;;2.90;99.90;;;;;;5075958;28;20139;-70
2022/01/17 02:59:30;;;;;;;42.03;21.97;;;2.80;99.90;;;;;;5075807;28;20545;-70
2022/01/17 03:01:59;;;;;;;43.30;21.03;;;2.90;99.90;;;;;;5075700;28;20136;-70
2022/01/17 03:04:28;;;;;;;39.40;19.03;;;2.90;99.90;;;;;;5075937;28;20483;-71
2022/01/17 03:06:55;;;;;;;41.97;20.10;;;2.90;99.90;;;;;;5075856;28;20048;-71
2022/01/17 03:09:23;;;;;;;38.43;20.17;;;2.90;99.90;;;;;;5076528;28;20071;-70
2022/01/17 03:11:52;;;;;;;42.90;20.33;;;2.90;99.90;;;;;;5075877;28;20049;-71
2022/01/17 03:14:19;;;;;;;38.90;19.23;;;2.90;99.90;;;;;;5075393;28;20087;-70
2022/01/17 03:16:48;;;;;;;39.80;19.13;;;2.90;99.90;;;;;;5074347;28;20080;-72
2022/01/17 03:19:15;;;;;;;40.43;19.37;;;2.90;99.90;;;;;;5074738;28;20059;-70
2022/01/17 03:21:42;;;;;;;41.23;19.67;;;2.90;99.90;;;;;;5075308;28;20091;-70
2022/01/17 03:24:09;;;;;;;43.40;20.40;;;2.90;99.90;;;;;;5075584;28;20123;-69
2022/01/17 03:26:36;;;;;;;43.17;19.93;;;2.90;99.90;;;;;;5075606;28;20080;-70
2022/01/17 03:29:05;;;;;;;41.13;19.53;;;2.80;99.90;;;;;;5074573;28;20055;-71
2022/01/17 03:31:32;;;;;;;40.97;18.43;;;2.80;99.90;;;;;;5075224;28;20087;-71
2022/01/17 03:33:59;;;;;;;40.80;19.23;;;2.90;99.90;;;;;;5075057;28;20045;-71
2022/01/17 03:36:26;;;;;;;38.47;18.50;;;2.90;99.90;;;;;;5075116;28;20087;-71
2022/01/17 03:38:54;;;;;;;40.13;20.00;;;2.90;99.90;;;;;;5075747;28;20104;-71
2022/01/17 03:41:21;;;;;;;39.60;20.20;;;2.90;99.90;;;;;;5075511;28;20451;-71
2022/01/17 03:43:48;;;;;;;37.60;19.10;;;3.00;99.90;;;;;;5071467;28;20440;-70
2022/01/17 03:46:16;;;;;;;35.07;18.33;;;2.90;99.90;;;;;;5067242;28;20091;-70
2022/01/17 03:48:43;;;;;;;37.13;18.97;;;2.90;99.90;;;;;;5075107;28;20513;-70
2022/01/17 03:51:10;;;;;;;37.73;17.50;;;2.90;99.90;;;;;;5075590;28;20055;-70
2022/01/17 03:53:37;;;;;;;37.57;19.40;;;3.00;99.90;;;;;;5074907;28;20124;-70
2022/01/17 03:56:04;;;;;;;40.27;18.87;;;3.00;99.90;;;;;;5074638;28;20080;-71
2022/01/17 03:58:31;;;;;;;35.07;16.60;;;3.00;99.90;;;;;;5074837;28;20091;-71
2022/01/17 04:00:59;;;;;;;36.10;17.57;;;3.00;99.90;;;;;;5068435;28;20135;-71
2022/01/17 04:03:27;;;;;;;36.77;18.87;;;3.00;99.90;;;;;;5057034;28;20072;-71
2022/01/17 04:05:55;;;;;;;38.87;20.03;;;3.00;99.90;;;;;;5063277;28;20084;-71
2022/01/17 04:08:22;;;;;;;37.20;18.70;;;3.00;99.90;;;;;;5054974;28;20080;-71
2022/01/17 04:10:49;;;;;;;35.30;18.67;;;3.00;99.90;;;;;;5054444;28;20136;-70
2022/01/17 04:13:16;;;;;;;35.87;17.23;;;3.00;99.90;;;;;;5054678;28;20048;-71
2022/01/17 04:15:43;;;;;;;37.90;18.73;;;3.10;99.90;;;;;;5054705;28;20488;-70
2022/01/17 04:18:11;;;;;;;34.70;16.30;;;3.10;99.90;;;;;;5054402;28;20088;-71
2022/01/17 04:20:41;;;;;;;34.00;17.90;;;3.10;99.90;;;;;;5054573;28;20136;-71
2022/01/17 04:23:09;;;;;;;33.77;16.40;;;3.10;99.90;;;;;;5054692;28;20060;-71
2022/01/17 04:25:39;;;;;;;34.03;16.67;;;3.10;99.90;;;;;;5054685;28;20131;-71
2022/01/17 04:28:08;;;;;;;31.07;16.20;;;3.10;99.90;;;;;;5054793;28;20107;-71
2022/01/17 04:30:36;;;;;;;33.20;16.03;;;3.20;99.90;;;;;;5054245;28;20068;-71
2022/01/17 04:33:03;;;;;;;31.93;16.47;;;3.20;99.90;;;;;;5054453;28;20147;-71
2022/01/17 04:35:31;;;;;;;32.17;16.10;;;3.20;99.90;;;;;;5054145;28;20513;-71
2022/01/17 04:38:02;;;;;;;30.37;16.30;;;3.20;99.90;;;;;;5054019;28;20085;-71
2022/01/17 04:40:34;;;;;;;33.67;16.13;;;3.20;99.90;;;;;;5054256;28;20140;-71
2022/01/17 04:43:03;;;;;;;30.27;14.87;;;3.20;99.90;;;;;;5053823;28;20124;-71
2022/01/17 04:45:30;;;;;;;33.73;17.10;;;3.20;99.90;;;;;;5053904;28;20110;-71
2022/01/17 04:47:56;;;;;;;27.93;14.97;;;3.30;99.90;;;;;;5054164;28;20469;-70
2022/01/17 04:50:26;;;;;;;30.00;15.13;;;3.30;99.90;;;;;;5053966;28;20081;-71
2022/01/17 04:52:56;;;;;;;30.87;13.93;;;3.30;99.90;;;;;;5054265;28;20045;-72
2022/01/17 04:55:25;;;;;;;26.57;12.87;;;3.30;99.90;;;;;;5068166;28;20112;-70
2022/01/17 04:57:52;;;;;;;26.47;13.80;;;3.30;99.90;;;;;;5074118;28;20086;-71
2022/01/17 05:00:22;;;;;;;26.83;12.83;;;3.40;99.90;;;;;;5074028;28;20045;-71
2022/01/17 05:02:50;;;;;;;26.13;13.10;;;3.40;99.90;;;;;;5073692;28;20131;-71
2022/01/17 05:05:17;;;;;;;26.87;13.03;;;3.40;99.90;;;;;;5073633;28;20135;-70
2022/01/17 05:07:45;;;;;;;24.90;12.60;;;3.30;99.90;;;;;;5073221;28;20144;-71
2022/01/17 05:10:15;;;;;;;22.77;11.53;;;3.40;99.90;;;;;;5073565;28;20102;-71
2022/01/17 05:12:45;;;;;;;22.97;12.40;;;3.40;99.90;;;;;;5072600;28;20049;-70
2022/01/17 05:15:23;;;;;;;25.17;12.67;;;3.30;99.90;;;;;;5073345;28;20083;-72
2022/01/17 05:18:23;;;;;;;27.27;13.30;;;3.30;99.90;;;;;;5074122;28;20110;-71
2022/01/17 05:20:50;;;;;;;26.83;13.87;;;3.30;99.90;;;;;;5073616;28;20045;-71
2022/01/17 05:23:17;;;;;;;30.37;14.60;;;3.30;99.90;;;;;;5074030;28;20049;-70
2022/01/17 05:25:44;;;;;;;26.43;13.67;;;3.40;99.90;;;;;;5074311;28;20131;-70
2022/01/17 05:28:12;;;;;;;24.80;12.10;;;3.30;99.90;;;;;;5073836;28;20479;-70
2022/01/17 05:30:40;;;;;;;29.80;15.20;;;3.30;99.90;;;;;;5073381;28;20135;-70
2022/01/17 05:33:06;;;;;;;27.70;12.83;;;3.20;99.90;;;;;;5073605;28;20080;-70
2022/01/17 05:35:33;;;;;;;25.13;12.33;;;3.20;99.90;;;;;;5071894;28;20140;-71
2022/01/17 05:38:01;;;;;;;28.27;13.13;;;3.20;99.90;;;;;;5071139;28;20140;-71
2022/01/17 05:40:28;;;;;;;27.30;13.30;;;3.20;99.90;;;;;;5072423;28;20163;-71
2022/01/17 05:42:54;;;;;;;29.93;14.77;;;3.20;99.90;;;;;;5075013;28;20072;-70
2022/01/17 05:45:23;;;;;;;29.60;14.43;;;3.20;99.90;;;;;;5077912;28;20476;-70
2022/01/17 05:47:50;;;;;;;30.00;14.47;;;3.30;99.90;;;;;;5077505;28;20044;-70
2022/01/17 05:50:17;;;;;;;26.67;13.77;;;3.30;99.90;;;;;;5077806;28;20055;-71
2022/01/17 05:52:45;;;;;;;28.93;13.90;;;3.30;99.90;;;;;;5077061;28;20495;-71
2022/01/17 05:55:14;;;;;;;27.80;12.63;;;3.30;99.90;;;;;;5076650;28;20135;-72
2022/01/17 05:57:41;;;;;;;24.43;13.07;;;3.30;99.90;;;;;;5076946;28;20051;-70
2022/01/17 06:00:11;;;;;;;25.83;12.60;;;3.30;99.90;;;;;;5075672;28;20087;-70
2022/01/17 06:02:43;;;;;;;29.80;14.90;;;3.30;99.90;;;;;;5074789;28;20480;-70
2022/01/17 06:05:12;;;;;;;27.83;13.33;;;3.30;99.90;;;;;;5075047;28;20088;-71
2022/01/17 06:07:39;;;;;;;31.40;12.87;;;3.30;99.90;;;;;;5075367;28;20056;-72
2022/01/17 06:10:07;;;;;;;23.43;11.23;;;3.30;99.90;;;;;;5074985;28;20131;-71
2022/01/17 06:12:34;;;;;;;30.80;14.20;;;3.30;99.90;;;;;;5074477;28;20090;-71
2022/01/17 06:15:01;;;;;;;29.60;13.37;;;3.30;99.90;;;;;;5074520;28;20490;-71
2022/01/17 06:17:28;;;;;;;23.27;11.60;;;3.30;99.90;;;;;;5074758;28;20084;-71
2022/01/17 06:19:56;;;;;;;28.03;14.37;;;3.20;99.90;;;;;;5074560;28;20132;-72
2022/01/17 06:22:23;;;;;;;31.70;14.27;;;3.20;99.90;;;;;;5076284;28;20087;-70
2022/01/17 06:24:50;;;;;;;30.87;16.03;;;3.20;99.90;;;;;;5076854;28;20075;-72
2022/01/17 06:27:18;;;;;;;32.63;15.80;;;3.20;99.90;;;;;;5077187;28;20072;-70
2022/01/17 06:29:45;;;;;;;32.43;15.57;;;3.30;99.90;;;;;;5076622;28;20076;-70
2022/01/17 06:32:12;;;;;;;33.43;16.13;;;3.20;99.90;;;;;;5076387;28;20152;-70
2022/01/17 06:34:39;;;;;;;39.50;16.97;;;3.20;99.90;;;;;;5076897;28;20102;-70
2022/01/17 06:37:07;;;;;;;30.30;14.17;;;3.20;99.90;;;;;;5076226;28;20076;-71
2022/01/17 06:39:34;;;;;;;33.37;16.17;;;3.20;99.90;;;;;;5075260;28;20135;-71
2022/01/17 06:42:01;;;;;;;37.60;16.73;;;3.20;99.90;;;;;;5076515;28;20131;-73
2022/01/17 06:44:29;;;;;;;33.30;15.50;;;3.20;99.90;;;;;;5076057;28;20071;-72
2022/01/17 06:46:56;;;;;;;32.87;15.23;;;3.20;99.90;;;;;;5076207;28;20072;-69
2022/01/17 06:49:23;;;;;;;32.17;14.87;;;3.20;99.90;;;;;;5076933;28;20103;-72
2022/01/17 06:51:50;;;;;;;32.57;15.10;;;3.20;99.90;;;;;;5076367;28;20090;-70
2022/01/17 06:54:18;;;;;;;28.70;14.53;;;3.20;99.90;;;;;;5074674;28;20080;-74
2022/01/17 06:56:45;;;;;;;32.03;15.53;;;3.20;99.90;;;;;;5075433;28;20083;-71
2022/01/17 06:59:12;;;;;;;33.30;15.33;;;3.20;99.90;;;;;;5075722;28;20091;-71
2022/01/17 07:01:39;;;;;;;30.87;14.63;;;3.20;99.90;;;;;;5075763;28;20049;-71
2022/01/17 07:04:07;;;;;;;31.97;14.30;;;3.20;99.90;;;;;;5076126;28;20131;-71
2022/01/17 07:06:34;;;;;;;30.07;13.47;;;3.30;99.90;;;;;;5076634;28;20140;-73
2022/01/17 07:09:02;;;;;;;28.07;13.00;;;3.30;99.90;;;;;;5076709;28;20127;-72
2022/01/17 07:11:30;;;;;;;32.03;13.70;;;3.30;99.90;;;;;;5076752;28;20057;-73
2022/01/17 07:13:57;;;;;;;28.40;14.20;;;3.30;99.90;;;;;;5076057;28;20076;-71
2022/01/17 07:16:24;;;;;;;29.03;14.50;;;3.40;99.90;;;;;;5075595;28;20131;-71
2022/01/17 07:18:51;;;;;;;30.90;14.20;;;3.40;99.90;;;;;;5077345;28;20135;-72
2022/01/17 07:21:18;;;;;;;30.50;13.63;;;3.40;99.90;;;;;;5075917;28;20104;-71
2022/01/17 07:23:45;;;;;;;27.00;12.67;;;3.40;99.90;;;;;;5076239;28;20075;-73
2022/01/17 07:26:12;;;;;;;30.43;13.50;;;3.40;99.90;;;;;;5076981;28;20084;-72
2022/01/17 07:28:40;;;;;;;29.47;12.70;;;3.40;99.90;;;;;;5077890;28;20048;-71
2022/01/17 07:31:07;;;;;;;28.03;13.33;;;3.40;99.90;;;;;;5078301;28;20104;-71
2022/01/17 07:33:37;;;;;;;28.73;13.60;;;3.40;99.90;;;;;;5075643;28;20127;-71
2022/01/17 07:36:05;;;;;;;30.63;13.93;;;3.40;99.90;;;;;;5073938;28;20055;-70
2022/01/17 07:38:32;;;;;;;33.30;16.00;;;3.40;99.90;;;;;;5075811;28;20127;-73
2022/01/17 07:40:59;;;;;;;30.50;14.33;;;3.40;99.90;;;;;;5076741;28;20091;-72
2022/01/17 07:43:26;;;;;;;29.73;14.27;;;3.50;99.90;;;;;;5075783;28;20087;-72
2022/01/17 07:46:04;;;;;;;30.20;13.57;;;3.50;99.90;;;;;;5076511;28;20080;-73
2022/01/17 07:48:56;;;;;;;25.37;12.70;;;3.50;99.90;;;;;;5076095;28;20106;-72
2022/01/17 07:51:23;;;;;;;27.83;13.00;;;3.50;99.90;;;;;;5076140;28;20048;-71
2022/01/17 07:53:50;;;;;;;27.77;14.20;;;3.50;99.90;;;;;;5076156;28;20588;-72
2022/01/17 07:56:17;;;;;;;31.40;15.13;;;3.50;99.90;;;;;;5075177;28;20124;-72
2022/01/17 07:58:44;;;;;;;30.30;13.70;;;3.50;99.90;;;;;;5074883;28;20497;-72
2022/01/17 08:01:13;;;;;;;27.60;12.73;;;3.50;99.90;;;;;;5075278;28;20565;-72
2022/01/17 08:03:40;;;;;;;28.57;14.03;;;3.50;99.90;;;;;;5074361;28;20127;-71
2022/01/17 08:06:07;;;;;;;29.57;13.33;;;3.50;99.90;;;;;;5073973;28;20079;-73
2022/01/17 08:08:34;;;;;;;31.23;14.10;;;3.50;99.90;;;;;;5074689;28;20132;-72
2022/01/17 08:11:01;;;;;;;32.43;14.23;;;3.50;99.90;;;;;;5074502;28;20485;-73
2022/01/17 08:13:28;;;;;;;27.90;13.23;;;3.60;99.90;;;;;;5073108;28;20123;-72
2022/01/17 08:15:55;;;;;;;28.23;13.80;;;3.50;99.90;;;;;;5074262;28;20107;-74
2022/01/17 08:18:24;;;;;;;24.97;11.70;;;3.60;99.90;;;;;;5075073;28;20059;-73
2022/01/17 08:20:51;;;;;;;26.73;12.47;;;3.60;99.90;;;;;;5074887;28;20086;-72
2022/01/17 08:23:17;;;;;;;32.10;14.43;;;3.60;99.90;;;;;;5074595;28;20572;-73
2022/01/17 08:25:44;;;;;;;28.97;13.10;;;3.60;99.90;;;;;;5074707;28;20155;-73
2022/01/17 08:28:13;;;;;;;31.30;12.90;;;3.60;99.90;;;;;;5075066;28;20132;-72
2022/01/17 08:30:40;;;;;;;26.77;12.50;;;3.60;99.90;;;;;;5074975;28;20049;-72
2022/01/17 08:33:07;;;;;;;31.00;14.60;;;3.60;99.90;;;;;;5074120;28;20143;-72
2022/01/17 08:35:35;;;;;;;24.70;11.67;;;3.60;99.90;;;;;;5073885;28;20136;-72
2022/01/17 08:38:02;;;;;;;31.87;14.53;;;3.60;99.90;;;;;;5073926;28;20113;-71
2022/01/17 08:40:29;;;;;;;31.20;13.53;;;3.60;99.90;;;;;;5074314;28;20580;-71
2022/01/17 08:42:57;;;;;;;34.17;13.73;;;3.60;99.90;;;;;;5074378;28;20135;-71
2022/01/17 08:45:24;;;;;;;28.63;13.03;;;3.60;99.90;;;;;;5074643;28;20113;-72
2022/01/17 08:47:52;;;;;;;31.90;14.70;;;3.60;99.90;;;;;;5074356;28;20131;-71
2022/01/17 08:50:20;;;;;;;32.30;14.33;;;3.60;99.90;;;;;;5074074;28;20147;-71
2022/01/17 08:52:49;;;;;;;29.07;13.37;;;3.60;99.90;;;;;;5074600;28;20131;-71
2022/01/17 08:55:17;;;;;;;32.30;13.50;;;3.70;99.90;;;;;;5073980;28;20111;-74
2022/01/17 08:57:44;;;;;;;31.63;13.50;;;3.70;99.90;;;;;;5074277;28;20131;-73
2022/01/17 09:00:13;;;;;;;26.70;11.83;;;3.70;99.90;;;;;;5074453;28;20136;-72
2022/01/17 09:02:40;;;;;;;29.23;12.77;;;3.70;99.90;;;;;;5073973;28;20127;-72
2022/01/17 09:05:08;;;;;;;29.03;12.73;;;3.70;99.90;;;;;;5074308;28;20131;-72
2022/01/17 09:07:35;;;;;;;25.50;10.90;;;3.80;99.90;;;;;;5073642;28;20104;-72
2022/01/17 09:10:05;;;;;;;28.17;12.47;;;3.70;99.90;;;;;;5073681;28;20468;-70
2022/01/17 09:12:33;;;;;;;27.27;12.40;;;3.70;99.90;;;;;;5073582;28;20063;-72
2022/01/17 09:15:00;;;;;;;27.27;12.90;;;3.80;99.90;;;;;;5073785;28;20087;-71
2022/01/17 09:17:27;;;;;;;27.23;12.13;;;3.80;99.90;;;;;;5073685;28;20056;-71
2022/01/17 09:19:54;;;;;;;29.33;12.83;;;3.80;99.90;;;;;;5073981;28;20636;-71
2022/01/17 09:22:21;;;;;;;29.93;13.67;;;3.80;99.90;;;;;;5073511;28;20135;-71
2022/01/17 09:24:47;;;;;;;28.73;13.33;;;3.80;99.90;;;;;;5073775;28;20076;-71
2022/01/17 09:27:16;;;;;;;26.77;12.50;;;3.90;99.90;;;;;;5073715;28;20144;-71
2022/01/17 09:29:44;;;;;;;29.53;11.40;;;3.90;99.90;;;;;;5073776;28;20056;-71
2022/01/17 09:32:11;;;;;;;25.07;11.87;;;3.90;99.90;;;;;;5073463;28;20131;-71
2022/01/17 09:34:38;;;;;;;27.50;11.70;;;3.90;99.90;;;;;;5073889;28;20049;-71
2022/01/17 09:37:05;;;;;;;24.60;11.83;;;3.90;99.90;;;;;;5073852;28;20056;-72
2022/01/17 09:39:33;;;;;;;25.80;12.10;;;4.00;99.90;;;;;;5074055;28;20080;-70
2022/01/17 09:42:00;;;;;;;27.57;12.13;;;4.00;99.90;;;;;;5073774;28;20099;-71
2022/01/17 09:44:28;;;;;;;22.87;11.37;;;3.90;99.90;;;;;;5073703;28;20128;-72
2022/01/17 09:46:57;;;;;;;24.97;11.27;;;4.00;99.90;;;;;;5073649;28;20076;-71
2022/01/17 09:49:30;;;;;;;27.67;12.37;;;4.00;99.90;;;;;;5073738;28;20052;-72
2022/01/17 09:52:08;;;;;;;24.20;10.70;;;4.00;99.90;;;;;;5074147;28;20516;-71
2022/01/17 09:54:37;;;;;;;22.70;9.87;;;4.00;99.90;;;;;;5155347;22;20131;-67
2022/01/17 09:57:08;;;;;;;25.63;10.23;;;4.00;99.90;;;;;;4987746;28;20490;-67
2022/01/17 09:59:38;;;;;;;25.67;11.17;;;4.10;99.90;;;;;;4989261;28;20405;-67
2022/01/17 10:02:05;;;;;;;25.20;10.03;;;4.10;99.90;;;;;;4988853;28;20081;-67
2022/01/17 10:04:33;;;;;;;21.40;10.50;;;4.10;99.90;;;;;;4988880;28;20167;-68
2022/01/17 10:07:02;;;;;;;19.40;9.63;;;4.10;99.90;;;;;;4989167;28;20581;-68
2022/01/17 10:09:31;;;;;;;19.33;9.00;;;4.10;99.90;;;;;;4988933;28;20057;-67
2022/01/17 10:12:05;;;;;;;21.27;9.60;;;4.10;99.90;;;;;;4988986;28;20050;-68
2022/01/17 10:14:36;;;;;;;20.30;9.00;;;4.20;99.90;;;;;;4988917;28;20109;-68
2022/01/17 10:17:06;;;;;;;23.60;9.23;;;4.20;99.90;;;;;;4988805;28;20058;-68
2022/01/17 10:19:33;;;;;;;18.90;8.50;;;4.20;99.90;;;;;;4988662;28;20057;-67
2022/01/17 10:22:03;;;;;;;22.50;7.80;;;4.20;99.90;;;;;;4988844;28;20070;-68
2022/01/17 10:24:37;;;;;;;20.37;8.53;;;4.20;99.90;;;;;;4988671;28;20057;-68
2022/01/17 10:30:18;;;;;;;18.38;8.40;;;4.20;99.90;;;;;;4989875;28;20559;-68
2022/01/17 10:35:32;;;;;;;18.27;8.17;;;4.20;99.90;;;;;;4991993;28;20053;-68
2022/01/17 10:38:05;;;;;;;18.57;9.53;;;4.30;99.90;;;;;;4992311;28;20055;-68
2022/01/17 10:40:36;;;;;;;20.03;8.40;;;4.30;99.90;;;;;;4991791;28;20133;-67
2022/01/17 10:43:05;;;;;;;18.77;8.67;;;4.30;99.90;;;;;;4991650;28;20480;-68
2022/01/17 10:45:41;;;;;;;21.53;8.43;;;4.40;99.90;;;;;;4991562;28;20081;-68
2022/01/17 10:48:10;;;;;;;16.50;7.23;;;4.40;99.90;;;;;;4991730;28;20096;-68
2022/01/17 10:50:39;;;;;;;19.17;8.33;;;4.30;99.90;;;;;;4991570;28;20393;-68
2022/01/17 10:53:09;;;;;;;16.53;7.20;;;4.40;99.90;;;;;;4992282;28;20151;-68
2022/01/17 10:55:38;;;;;;;17.27;7.50;;;4.40;99.90;;;;;;5004087;28;20138;-67
2022/01/17 10:58:09;;;;;;;21.13;8.10;;;4.40;99.90;;;;;;5011138;28;20133;-67
2022/01/17 11:00:38;;;;;;;17.13;7.40;;;4.40;99.90;;;;;;5011385;28;20516;-67
2022/01/17 11:03:08;;;;;;;19.53;7.70;;;4.30;99.90;;;;;;5010998;28;20412;-68
2022/01/17 11:05:38;;;;;;;18.37;7.97;;;4.30;99.90;;;;;;5011340;28;20137;-68
2022/01/17 11:08:06;;;;;;;18.57;8.17;;;4.40;99.90;;;;;;5011053;28;20158;-68
2022/01/17 11:10:35;;;;;;;18.67;8.80;;;4.40;99.90;;;;;;5010832;28;20484;-68
2022/01/17 11:13:04;;;;;;;16.53;7.73;;;4.30;99.90;;;;;;5011040;28;20085;-68
2022/01/17 11:15:33;;;;;;;20.73;9.33;;;4.30;99.90;;;;;;5010677;28;20136;-68
2022/01/17 11:18:05;;;;;;;18.40;8.33;;;4.30;99.90;;;;;;5010779;28;20058;-68
2022/01/17 11:20:34;;;;;;;21.67;8.63;;;4.40;99.90;;;;;;5012296;28;20064;-68
2022/01/17 11:23:04;;;;;;;16.60;8.13;;;4.40;99.90;;;;;;5012347;28;20508;-68
2022/01/17 11:25:34;;;;;;;19.23;8.20;;;4.40;99.90;;;;;;5012105;28;20079;-67
2022/01/17 11:28:03;;;;;;;22.20;9.17;;;4.40;99.90;;;;;;5012130;28;20133;-68
2022/01/17 11:30:30;;;;;;;17.30;7.53;;;4.50;99.90;;;;;;5012653;28;20081;-68
2022/01/17 11:32:58;;;;;;;15.90;7.63;;;4.50;99.90;;;;;;5011943;28;20074;-68
2022/01/17 11:35:26;;;;;;;14.20;6.97;;;4.60;99.90;;;;;;5011916;28;20133;-67
2022/01/17 11:37:56;;;;;;;14.30;6.77;;;4.60;99.90;;;;;;5011751;28;20061;-67
2022/01/17 11:40:30;;;;;;;19.57;7.10;;;4.60;99.90;;;;;;5011185;28;20107;-68
2022/01/17 11:42:58;;;;;;;16.90;7.27;;;4.60;99.90;;;;;;5011417;28;20145;-68
2022/01/17 11:45:46;;;;;;;13.63;6.67;;;4.60;99.90;;;;;;5011327;28;20394;-68
2022/01/17 11:48:24;;;;;;;13.83;5.30;;;4.60;99.90;;;;;;5012882;28;20141;-68
2022/01/17 11:50:54;;;;;;;19.70;7.30;;;4.60;99.90;;;;;;5010945;28;20089;-68
2022/01/17 11:53:42;;;;;;;15.97;7.80;;;4.60;99.90;;;;;;5010376;28;20096;-68
2022/01/17 11:56:14;;;;;;;15.37;5.90;;;4.60;99.90;;;;;;5012385;28;20137;-68
2022/01/17 11:58:44;;;;;;;18.57;8.23;;;4.60;99.90;;;;;;5017108;28;20057;-67
2022/01/17 12:01:13;;;;;;;17.57;7.87;;;4.70;99.90;;;;;;5011742;28;20056;-68
2022/01/17 12:03:41;;;;;;;17.67;8.43;;;4.60;99.90;;;;;;5012952;28;20049;-68
2022/01/17 12:06:36;;;;;;;16.47;7.33;;;4.60;99.90;;;;;;5019878;28;20400;-68
2022/01/17 12:09:22;;;;;;;15.73;7.40;;;4.60;99.90;;;;;;5011834;28;20137;-70
2022/01/17 12:12:11;;;;;;;17.20;7.90;;;4.60;99.90;;;;;;5019615;28;20050;-68
2022/01/17 12:14:42;;;;;;;18.60;8.33;;;4.70;99.90;;;;;;5016207;28;20073;-67
2022/01/17 12:17:31;;;;;;;20.10;8.50;;;4.70;99.90;;;;;;5018049;28;20497;-68
2022/01/17 12:20:22;;;;;;;20.93;8.10;;;4.60;99.90;;;;;;5020314;28;20076;-67
2022/01/17 12:22:58;;;;;;;16.77;7.33;;;4.70;99.90;;;;;;5019932;28;20058;-68
2022/01/17 12:25:34;;;;;;;18.77;7.63;;;4.70;99.90;;;;;;5019592;28;20086;-68
2022/01/17 12:28:25;;;;;;;18.13;8.60;;;4.60;99.90;;;;;;5019304;28;20109;-67
2022/01/17 12:30:56;;;;;;;16.07;7.70;;;4.60;99.90;;;;;;5020543;28;20045;-67
2022/01/17 12:33:37;;;;;;;21.57;9.00;;;4.60;99.90;;;;;;5019397;28;20117;-68
2022/01/17 12:36:07;;;;;;;21.63;8.07;;;4.60;99.90;;;;;;5011061;28;20562;-68
2022/01/17 12:38:37;;;;;;;21.27;9.70;;;4.50;99.90;;;;;;5009647;28;20140;-68
2022/01/17 12:41:04;;;;;;;19.30;9.03;;;4.50;99.90;;;;;;5009605;28;20061;-67
2022/01/17 12:43:35;;;;;;;18.97;8.47;;;4.50;99.90;;;;;;5009374;28;20058;-68
2022/01/17 12:46:04;;;;;;;18.57;8.63;;;4.50;99.90;;;;;;5009675;28;20513;-68
2022/01/17 12:48:33;;;;;;;20.23;9.43;;;4.50;99.90;;;;;;5010630;28;20056;-67
2022/01/17 12:51:03;;;;;;;18.80;6.50;;;4.50;99.90;;;;;;5009886;28;20077;-68
2022/01/17 12:53:31;;;;;;;18.47;8.10;;;4.50;99.90;;;;;;5008626;28;20046;-67
2022/01/17 12:56:00;;;;;;;21.67;8.23;;;4.40;99.90;;;;;;5008984;28;20140;-68
2022/01/17 12:58:30;;;;;;;19.67;9.17;;;4.40;99.90;;;;;;5009279;28;20049;-68
2022/01/17 13:01:01;;;;;;;21.73;8.50;;;4.40;99.90;;;;;;5009312;28;20060;-67
2022/01/17 13:03:33;;;;;;;15.40;7.40;;;4.40;99.90;;;;;;5009128;28;20557;-67